Time,TemperatureF,DewpointF,PressureIn,WindDirection,WindDirectionDegrees,WindSpeedMPH,WindSpeedGustMPH,Humidity,HourlyPrecipIn,Conditions,Clouds,dailyrainin,SolarRadiationWatts/m^2,SoftwareType,DateUTC
2013-10-04 00:32:00,64.8,61.8,30.01,WSW,239,0.0,0.0,90,0.00,,CLR,0.00,0.00,VWS V14.01,2013-10-04 04:32:00,
2013-10-04 00:34:00,64.7,61.7,30.01,WSW,239,0.0,0.0,90,0.00,,CLR,0.00,0.00,VWS V14.01,2013-10-04 04:34:00,
2013-10-04 00:36:00,64.7,61.7,30.01,WSW,238,0.0,0.0,90,0.00,,CLR,0.00,0.00,VWS V14.01,2013-10-04 04:36:00,
2013-10-04 00:41:00,64.5,61.5,30.01,WSW,238,0.0,0.0,90,0.00,,CLR,0.00,0.00,VWS V14.01,2013-10-04 04:41:00,
2013-10-04 00:44:00,64.4,61.4,30.01,WSW,239,0.0,0.0,90,0.00,,CLR,0.00,0.00,VWS V14.01,2013-10-04 04:44:00,
2013-10-04 00:48:00,64.2,61.2,30.01,WSW,238,0.0,0.0,90,0.00,,CLR,0.00,0.00,VWS V14.01,2013-10-04 04:48:00,
2013-10-04 00:58:00,63.9,60.9,30.00,WSW,239,0.0,0.0,90,0.00,,CLR,0.00,0.00,VWS V14.01,2013-10-04 04:58:00,
2013-10-04 01:02:00,63.8,60.8,30.00,WSW,239,0.0,0.0,90,0.00,,CLR,0.00,0.00,VWS V14.01,2013-10-04 05:02:00,
2013-10-04 01:06:00,63.7,61.0,30.00,WSW,239,0.0,0.0,91,0.00,,CLR,0.00,0.00,VWS V14.01,2013-10-04 05:06:00,
2013-10-04 01:08:00,63.6,60.9,30.00,WSW,238,0.0,0.0,91,0.00,,CLR,0.00,0.00,VWS V14.01,2013-10-04 05:08:00,
2013-10-04 01:14:00,63.6,60.9,30.00,WSW,239,0.0,0.0,91,0.00,,CLR,0.00,0.00,VWS V14.01,2013-10-04 05:14:00,
2013-10-04 01:19:00,63.5,61.1,30.01,WSW,239,0.0,0.0,92,0.00,,CLR,0.00,0.00,VWS V14.01,2013-10-04 05:19:00,
2013-10-04 01:20:00,63.5,61.1,30.01,WSW,239,0.0,0.0,92,0.00,,CLR,0.00,0.00,VWS V14.01,2013-10-04 05:20:00,
2013-10-04 01:24:00,63.4,61.0,30.01,WSW,238,0.0,0.0,92,0.00,,CLR,0.00,0.00,VWS V14.01,2013-10-04 05:24:00,
2013-10-04 01:27:00,63.4,61.0,30.01,WSW,239,0.0,0.0,92,0.00,,CLR,0.00,0.00,VWS V14.01,2013-10-04 05:27:00,
2013-10-04 01:29:00,63.4,61.0,30.01,WSW,239,0.0,0.0,92,0.00,,CLR,0.00,0.00,VWS V14.01,2013-10-04 05:29:00,
2013-10-04 01:34:00,63.3,61.2,30.01,WSW,239,0.0,0.0,93,0.00,,CLR,0.00,0.00,VWS V14.01,2013-10-04 05:34:00,
2013-10-04 01:39:00,63.2,61.2,30.01,WSW,238,0.0,0.0,93,0.00,,CLR,0.00,0.00,VWS V14.01,2013-10-04 05:39:00,
2013-10-04 01:44:00,63.1,61.0,30.01,WSW,239,0.0,0.0,93,0.00,,CLR,0.00,0.00,VWS V14.01,2013-10-04 05:44:00,
2013-10-04 01:50:00,63.1,61.0,30.01,WSW,239,0.0,0.0,93,0.00,,CLR,0.00,0.00,VWS V14.01,2013-10-04 05:50:00,
2013-10-04 01:55:00,62.9,60.8,30.01,WSW,239,0.0,0.0,93,0.00,,CLR,0.00,0.00,VWS V14.01,2013-10-04 05:55:00,
2013-10-04 02:00:00,62.9,61.2,30.01,WSW,239,0.0,0.0,94,0.00,,CLR,0.00,0.00,VWS V14.01,2013-10-04 06:00:00,
2013-10-04 02:05:00,62.8,61.0,30.01,WSW,239,0.0,0.0,94,0.00,,CLR,0.00,0.00,VWS V14.01,2013-10-04 06:05:00,
2013-10-04 02:10:00,62.8,61.0,30.01,WSW,239,0.0,0.0,94,0.00,,CLR,0.00,0.00,VWS V14.01,2013-10-04 06:10:00,
2013-10-04 02:15:00,62.7,61.0,30.01,WSW,238,0.0,0.0,94,0.00,,CLR,0.00,0.00,VWS V14.01,2013-10-04 06:15:00,
2013-10-04 02:20:00,62.6,60.8,30.01,WSW,239,0.0,0.0,94,0.00,,CLR,0.00,0.00,VWS V14.01,2013-10-04 06:20:00,
2013-10-04 02:25:00,62.5,60.8,30.01,WSW,239,0.0,0.0,94,0.00,,CLR,0.00,0.00,VWS V14.01,2013-10-04 06:25:00,
2013-10-04 02:30:00,62.4,60.7,30.01,WSW,239,0.0,0.0,94,0.00,,CLR,0.00,0.00,VWS V14.01,2013-10-04 06:30:00,
2013-10-04 02:36:00,62.3,60.8,30.01,WSW,239,0.0,0.0,95,0.00,,CLR,0.00,0.00,VWS V14.01,2013-10-04 06:36:00,
2013-10-04 02:41:00,62.2,60.8,30.01,WSW,239,0.0,0.0,95,0.00,,CLR,0.00,0.00,VWS V14.01,2013-10-04 06:41:00,
2013-10-04 02:46:00,62.1,60.7,30.01,WSW,239,0.0,0.0,95,0.00,,CLR,0.00,0.00,VWS V14.01,2013-10-04 06:46:00,
2013-10-04 02:51:00,61.9,60.5,30.01,WSW,239,0.0,0.0,95,0.00,,CLR,0.00,0.00,VWS V14.01,2013-10-04 06:51:00,
2013-10-04 02:56:00,61.8,60.4,30.00,WSW,239,0.0,0.0,95,0.00,,CLR,0.00,0.00,VWS V14.01,2013-10-04 06:56:00,
2013-10-04 03:01:00,61.7,60.3,30.01,WSW,239,0.0,0.0,95,0.00,,CLR,0.00,0.00,VWS V14.01,2013-10-04 07:01:00,
2013-10-04 03:06:00,61.7,60.3,30.01,WSW,238,0.0,0.0,95,0.00,,CLR,0.00,0.00,VWS V14.01,2013-10-04 07:06:00,
2013-10-04 03:11:00,61.7,60.5,30.00,WSW,238,0.0,0.0,96,0.00,,CLR,0.00,0.00,VWS V14.01,2013-10-04 07:11:00,
2013-10-04 03:16:00,61.8,60.7,30.00,WSW,239,0.0,0.0,96,0.00,,CLR,0.00,0.00,VWS V14.01,2013-10-04 07:16:00,
2013-10-04 03:22:00,61.8,60.7,30.00,WSW,239,0.0,0.0,96,0.00,,CLR,0.00,0.00,VWS V14.01,2013-10-04 07:22:00,
2013-10-04 03:27:00,61.8,60.7,30.00,WSW,238,0.0,0.0,96,0.00,,CLR,0.00,0.00,VWS V14.01,2013-10-04 07:27:00,
2013-10-04 03:32:00,61.7,60.5,30.00,WSW,239,0.0,0.0,96,0.00,,CLR,0.00,0.00,VWS V14.01,2013-10-04 07:32:00,
2013-10-04 03:37:00,61.7,60.5,30.00,WSW,239,0.0,0.0,96,0.00,,CLR,0.00,0.00,VWS V14.01,2013-10-04 07:37:00,
2013-10-04 03:42:00,61.7,60.5,30.01,WSW,239,0.0,0.0,96,0.00,,CLR,0.00,0.00,VWS V14.01,2013-10-04 07:42:00,
2013-10-04 03:47:00,61.6,60.5,30.00,WSW,239,0.0,0.0,96,0.00,,CLR,0.00,0.00,VWS V14.01,2013-10-04 07:47:00,
2013-10-04 03:52:00,61.5,60.3,30.00,WSW,238,0.0,0.0,96,0.00,,CLR,0.00,0.00,VWS V14.01,2013-10-04 07:52:00,
2013-10-04 03:57:00,61.4,60.2,30.01,WSW,238,0.0,0.0,96,0.00,,CLR,0.00,0.00,VWS V14.01,2013-10-04 07:57:00,
2013-10-04 04:02:00,61.4,60.2,30.00,WSW,239,0.0,0.0,96,0.00,,CLR,0.00,0.00,VWS V14.01,2013-10-04 08:02:00,
2013-10-04 04:07:00,61.3,60.2,30.00,WSW,238,0.0,0.0,96,0.00,,CLR,0.00,0.00,VWS V14.01,2013-10-04 08:07:00,
2013-10-04 04:12:00,61.2,60.0,30.00,WSW,239,0.0,0.0,96,0.00,,CLR,0.00,0.00,VWS V14.01,2013-10-04 08:12:00,
2013-10-04 04:17:00,61.1,60.0,30.00,WSW,239,0.0,0.0,96,0.00,,CLR,0.00,0.00,VWS V14.01,2013-10-04 08:17:00,
2013-10-04 04:22:00,61.0,59.9,30.00,WSW,239,0.0,0.0,96,0.00,,CLR,0.00,0.00,VWS V14.01,2013-10-04 08:22:00,
2013-10-04 04:27:00,60.9,59.8,30.00,WSW,238,0.0,0.0,96,0.00,,CLR,0.00,0.00,VWS V14.01,2013-10-04 08:27:00,
2013-10-04 04:33:00,60.8,59.7,30.00,WSW,239,0.0,0.0,96,0.00,,CLR,0.00,0.00,VWS V14.01,2013-10-04 08:33:00,
2013-10-04 04:38:00,60.6,59.5,30.00,WSW,239,0.0,0.0,96,0.00,,CLR,0.00,0.00,VWS V14.01,2013-10-04 08:38:00,
2013-10-04 04:43:00,60.6,59.8,30.00,WSW,238,0.0,0.0,97,0.00,,CLR,0.00,0.00,VWS V14.01,2013-10-04 08:43:00,
2013-10-04 04:48:00,60.5,59.7,30.01,WSW,238,0.0,0.0,97,0.00,,CLR,0.00,0.00,VWS V14.01,2013-10-04 08:48:00,
2013-10-04 04:53:00,60.4,59.3,30.01,WSW,239,0.0,0.0,96,0.00,,CLR,0.00,0.00,VWS V14.01,2013-10-04 08:53:00,
2013-10-04 04:58:00,60.3,59.5,30.01,WSW,239,0.0,0.0,97,0.00,,CLR,0.00,0.00,VWS V14.01,2013-10-04 08:58:00,
2013-10-04 05:03:00,60.3,59.5,30.01,WSW,239,0.0,0.0,97,0.00,,CLR,0.00,0.00,VWS V14.01,2013-10-04 09:03:00,
2013-10-04 05:08:00,60.4,59.5,30.01,WSW,239,0.0,0.0,97,0.00,,CLR,0.00,0.00,VWS V14.01,2013-10-04 09:08:00,
2013-10-04 05:13:00,60.4,59.5,30.01,WSW,238,0.0,0.0,97,0.00,,CLR,0.00,0.00,VWS V14.01,2013-10-04 09:13:00,
2013-10-04 05:18:00,60.4,59.5,30.00,WSW,239,0.0,0.0,97,0.00,,CLR,0.00,0.00,VWS V14.01,2013-10-04 09:18:00,
2013-10-04 05:23:00,60.4,59.5,30.00,WSW,239,0.0,0.0,97,0.00,,CLR,0.00,0.00,VWS V14.01,2013-10-04 09:23:00,
2013-10-04 05:28:00,60.3,59.5,30.01,WSW,239,0.0,0.0,97,0.00,,CLR,0.00,0.00,VWS V14.01,2013-10-04 09:28:00,
2013-10-04 05:33:00,60.2,59.3,30.01,WSW,238,0.0,0.0,97,0.00,,CLR,0.00,0.00,VWS V14.01,2013-10-04 09:33:00,
2013-10-04 05:38:00,60.0,59.2,30.01,WSW,238,0.0,0.0,97,0.00,,CLR,0.00,0.00,VWS V14.01,2013-10-04 09:38:00,
2013-10-04 05:44:00,59.9,59.0,30.01,WSW,239,0.0,0.0,97,0.00,,CLR,0.00,0.00,VWS V14.01,2013-10-04 09:44:00,
2013-10-04 05:49:00,59.8,59.0,30.01,WSW,239,0.0,0.0,97,0.00,,CLR,0.00,0.00,VWS V14.01,2013-10-04 09:49:00,
2013-10-04 05:54:00,59.8,59.0,30.01,WSW,239,0.0,0.0,97,0.00,,CLR,0.00,0.00,VWS V14.01,2013-10-04 09:54:00,
2013-10-04 05:59:00,59.8,59.0,30.01,WSW,238,0.0,0.0,97,0.00,,CLR,0.00,0.00,VWS V14.01,2013-10-04 09:59:00,
2013-10-04 06:04:00,60.0,59.2,30.01,WSW,238,0.0,0.0,97,0.00,,CLR,0.00,0.00,VWS V14.01,2013-10-04 10:04:00,
2013-10-04 06:09:00,60.2,59.6,30.02,WSW,239,0.0,0.0,98,0.00,,CLR,0.00,0.00,VWS V14.01,2013-10-04 10:09:00,
2013-10-04 06:14:00,60.4,59.8,30.02,WSW,239,0.0,0.0,98,0.00,,CLR,0.00,0.00,VWS V14.01,2013-10-04 10:14:00,
2013-10-04 06:19:00,60.4,59.8,30.02,WSW,238,0.0,0.0,98,0.00,,CLR,0.00,0.00,VWS V14.01,2013-10-04 10:19:00,
2013-10-04 06:24:00,60.5,59.9,30.02,WSW,239,0.0,0.0,98,0.00,,CLR,0.00,0.00,VWS V14.01,2013-10-04 10:24:00,
2013-10-04 06:29:00,60.6,60.0,30.03,WSW,239,0.0,0.0,98,0.00,,CLR,0.00,0.00,VWS V14.01,2013-10-04 10:29:00,
2013-10-04 06:34:00,60.7,60.1,30.03,WSW,239,0.0,0.0,98,0.00,,CLR,0.00,0.00,VWS V14.01,2013-10-04 10:34:00,
2013-10-04 06:39:00,60.7,60.1,30.03,WSW,239,0.0,0.0,98,0.00,,CLR,0.00,0.00,VWS V14.01,2013-10-04 10:39:00,
2013-10-04 06:44:00,60.8,60.2,30.03,WSW,238,0.0,0.0,98,0.00,,CLR,0.00,0.00,VWS V14.01,2013-10-04 10:44:00,
2013-10-04 06:49:00,60.8,60.2,30.03,WSW,239,0.0,0.0,98,0.00,,CLR,0.00,0.00,VWS V14.01,2013-10-04 10:49:00,
2013-10-04 06:54:00,60.9,60.3,30.04,WSW,239,0.0,0.0,98,0.00,,CLR,0.00,0.00,VWS V14.01,2013-10-04 10:54:00,
2013-10-04 07:00:00,60.9,60.3,30.03,WSW,238,0.0,0.0,98,0.00,,CLR,0.00,0.00,VWS V14.01,2013-10-04 11:00:00,
2013-10-04 07:05:00,61.0,60.4,30.03,WSW,239,0.0,0.0,98,0.00,,CLR,0.00,0.00,VWS V14.01,2013-10-04 11:05:00,
2013-10-04 07:10:00,61.1,60.5,30.03,WSW,238,0.0,0.0,98,0.00,,CLR,0.00,0.00,VWS V14.01,2013-10-04 11:10:00,
2013-10-04 07:15:00,61.1,60.5,30.03,WSW,239,0.0,0.0,98,0.00,,CLR,0.00,0.00,VWS V14.01,2013-10-04 11:15:00,
2013-10-04 07:20:00,61.2,60.6,30.04,WSW,238,0.0,0.0,98,0.00,,CLR,0.00,0.00,VWS V14.01,2013-10-04 11:20:00,
2013-10-04 07:25:00,61.2,60.6,30.04,WSW,238,0.0,0.0,98,0.00,,CLR,0.00,0.00,VWS V14.01,2013-10-04 11:25:00,
2013-10-04 07:30:00,61.3,60.7,30.04,WSW,239,0.0,0.0,98,0.00,,CLR,0.00,5.00,VWS V14.01,2013-10-04 11:30:00,
2013-10-04 07:35:00,61.3,60.7,30.05,WSW,239,0.0,0.0,98,0.00,,CLR,0.00,7.00,VWS V14.01,2013-10-04 11:35:00,
2013-10-04 07:40:00,61.4,60.8,30.05,WSW,239,0.0,0.0,98,0.00,,CLR,0.00,9.00,VWS V14.01,2013-10-04 11:40:00,
2013-10-04 07:45:00,61.4,60.8,30.05,WSW,239,0.0,0.0,98,0.00,,CLR,0.00,9.00,VWS V14.01,2013-10-04 11:45:00,
2013-10-04 07:50:00,61.4,60.8,30.05,WSW,239,0.0,0.0,98,0.00,,CLR,0.00,9.00,VWS V14.01,2013-10-04 11:50:00,
2013-10-04 07:55:00,61.5,60.9,30.05,WSW,238,0.0,0.0,98,0.00,,CLR,0.00,12.00,VWS V14.01,2013-10-04 11:55:00,
2013-10-04 08:00:00,61.5,60.9,30.05,WSW,239,0.0,1.0,98,0.00,,CLR,0.00,18.00,VWS V14.01,2013-10-04 12:00:00,
2013-10-04 08:05:00,61.6,61.0,30.05,WSW,239,0.0,0.0,98,0.00,,CLR,0.00,23.00,VWS V14.01,2013-10-04 12:05:00,
2013-10-04 08:10:00,61.6,61.0,30.05,WSW,239,0.0,0.0,98,0.00,,CLR,0.00,32.00,VWS V14.01,2013-10-04 12:10:00,
2013-10-04 08:16:00,61.7,61.1,30.05,WSW,238,0.0,1.0,98,0.00,,CLR,0.00,39.00,VWS V14.01,2013-10-04 12:16:00,
2013-10-04 08:21:00,61.8,61.2,30.05,WSW,239,0.0,0.0,98,0.00,,CLR,0.00,46.00,VWS V14.01,2013-10-04 12:21:00,
2013-10-04 08:26:00,61.9,61.3,30.05,WSW,239,0.0,0.0,98,0.00,,CLR,0.00,49.00,VWS V14.01,2013-10-04 12:26:00,
2013-10-04 08:31:00,62.0,61.4,30.05,WSW,238,0.0,3.0,98,0.00,,CLR,0.00,69.00,VWS V14.01,2013-10-04 12:31:00,
2013-10-04 08:36:00,62.1,61.5,30.05,SW,236,0.0,1.0,98,0.00,,CLR,0.00,86.00,VWS V14.01,2013-10-04 12:36:00,
2013-10-04 08:41:00,62.3,62.0,30.06,SSW,196,0.0,5.0,99,0.00,,CLR,0.00,98.00,VWS V14.01,2013-10-04 12:41:00,
2013-10-04 08:46:00,62.4,62.1,30.06,SSW,205,0.0,1.0,99,0.00,,CLR,0.00,100.00,VWS V14.01,2013-10-04 12:46:00,
2013-10-04 08:51:00,62.5,62.2,30.06,SSW,206,2.0,3.0,99,0.00,,CLR,0.00,116.00,VWS V14.01,2013-10-04 12:51:00,
2013-10-04 08:56:00,62.7,62.4,30.06,SSW,206,2.0,2.0,99,0.00,,CLR,0.00,130.00,VWS V14.01,2013-10-04 12:56:00,
2013-10-04 09:01:00,62.9,62.6,30.06,SSW,200,1.0,3.0,99,0.00,,CLR,0.00,148.00,VWS V14.01,2013-10-04 13:01:00,
2013-10-04 09:06:00,63.2,62.9,30.07,SSW,202,0.0,2.0,99,0.00,,CLR,0.00,158.00,VWS V14.01,2013-10-04 13:06:00,
2013-10-04 09:11:00,63.7,63.4,30.07,SSW,202,0.0,1.0,99,0.00,,CLR,0.00,155.00,VWS V14.01,2013-10-04 13:11:00,
2013-10-04 09:16:00,63.9,63.6,30.07,SSW,203,0.0,1.0,99,0.00,,CLR,0.00,135.00,VWS V14.01,2013-10-04 13:16:00,
2013-10-04 09:21:00,64.0,63.4,30.07,SSW,203,0.0,1.0,98,0.00,,CLR,0.00,183.00,VWS V14.01,2013-10-04 13:21:00,
2013-10-04 09:27:00,64.2,63.6,30.07,SSW,203,0.0,1.0,98,0.00,,CLR,0.00,220.00,VWS V14.01,2013-10-04 13:27:00,
2013-10-04 09:32:00,64.8,64.2,30.07,SSW,203,0.0,1.0,98,0.00,,CLR,0.00,223.00,VWS V14.01,2013-10-04 13:32:00,
2013-10-04 09:37:00,65.1,64.2,30.07,SSW,203,0.0,1.0,97,0.00,,CLR,0.00,181.00,VWS V14.01,2013-10-04 13:37:00,
2013-10-04 09:42:00,65.5,64.6,30.07,SSW,203,0.0,1.0,97,0.00,,CLR,0.00,158.00,VWS V14.01,2013-10-04 13:42:00,
2013-10-04 09:47:00,65.8,64.9,30.07,SSW,203,0.0,1.0,97,0.00,,CLR,0.00,155.00,VWS V14.01,2013-10-04 13:47:00,
2013-10-04 09:52:00,66.0,64.8,30.07,SSW,203,0.0,1.0,96,0.00,,CLR,0.00,158.00,VWS V14.01,2013-10-04 13:52:00,
2013-10-04 09:57:00,66.2,64.7,30.07,SSW,203,0.0,1.0,95,0.00,,CLR,0.00,155.00,VWS V14.01,2013-10-04 13:57:00,
2013-10-04 10:02:00,66.3,64.8,30.07,SSW,203,0.0,1.0,95,0.00,,CLR,0.00,155.00,VWS V14.01,2013-10-04 14:02:00,
2013-10-04 10:07:00,66.5,64.7,30.06,SSW,203,0.0,1.0,94,0.00,,CLR,0.00,174.00,VWS V14.01,2013-10-04 14:07:00,
2013-10-04 10:12:00,66.7,64.6,30.06,SSW,203,0.0,0.0,93,0.00,,CLR,0.00,188.00,VWS V14.01,2013-10-04 14:12:00,
2013-10-04 10:17:00,66.9,64.5,30.06,SSW,203,0.0,0.0,92,0.00,,CLR,0.00,237.00,VWS V14.01,2013-10-04 14:17:00,
2013-10-04 10:22:00,67.4,65.0,30.06,SSW,203,0.0,1.0,92,0.00,,CLR,0.00,276.00,VWS V14.01,2013-10-04 14:22:00,
2013-10-04 10:27:00,67.9,64.9,30.06,SSW,203,0.0,1.0,90,0.00,,CLR,0.00,258.00,VWS V14.01,2013-10-04 14:27:00,
2013-10-04 10:33:00,68.2,64.8,30.06,SSW,203,0.0,3.0,89,0.00,,CLR,0.00,241.00,VWS V14.01,2013-10-04 14:33:00,
2013-10-04 10:38:00,68.6,65.2,30.06,SSW,203,0.0,1.0,89,0.00,,CLR,0.00,244.00,VWS V14.01,2013-10-04 14:38:00,
2013-10-04 10:43:00,68.9,65.2,30.06,SSW,203,0.0,0.0,88,0.00,,CLR,0.00,229.00,VWS V14.01,2013-10-04 14:43:00,
2013-10-04 10:48:00,69.3,65.6,30.06,SSW,203,0.0,1.0,88,0.00,,CLR,0.00,206.00,VWS V14.01,2013-10-04 14:48:00,
2013-10-04 10:53:00,69.5,65.5,30.06,SSW,203,0.0,1.0,87,0.00,,CLR,0.00,216.00,VWS V14.01,2013-10-04 14:53:00,
2013-10-04 10:58:00,69.8,65.4,30.06,SSW,203,0.0,1.0,86,0.00,,CLR,0.00,243.00,VWS V14.01,2013-10-04 14:58:00,
2013-10-04 11:03:00,70.1,65.7,30.07,SSW,203,0.0,0.0,86,0.00,,CLR,0.00,272.00,VWS V14.01,2013-10-04 15:03:00,
2013-10-04 11:08:00,70.4,65.7,30.06,SSW,203,0.0,1.0,85,0.00,,CLR,0.00,297.00,VWS V14.01,2013-10-04 15:08:00,
2013-10-04 11:13:00,70.7,65.6,30.06,SSW,203,0.0,1.0,84,0.00,,CLR,0.00,327.00,VWS V14.01,2013-10-04 15:13:00,
2013-10-04 11:18:00,71.2,66.1,30.06,SSW,203,0.0,1.0,84,0.00,,CLR,0.00,313.00,VWS V14.01,2013-10-04 15:18:00,
2013-10-04 11:21:00,71.3,65.9,30.06,SSW,203,0.0,0.0,83,0.00,,CLR,0.00,339.00,VWS V14.01,2013-10-04 15:21:00,
2013-10-04 11:26:00,71.9,66.5,30.06,SSW,203,4.0,4.0,83,0.00,,CLR,0.00,555.00,VWS V14.01,2013-10-04 15:26:00,
2013-10-04 11:31:00,72.5,66.7,30.06,SSW,203,0.0,2.0,82,0.00,,CLR,0.00,705.00,VWS V14.01,2013-10-04 15:31:00,
2013-10-04 11:36:00,73.5,67.0,30.06,SSW,205,0.0,4.0,80,0.00,,CLR,0.00,494.00,VWS V14.01,2013-10-04 15:36:00,
2013-10-04 11:41:00,73.9,66.6,30.06,SW,215,0.0,1.0,78,0.00,,CLR,0.00,568.00,VWS V14.01,2013-10-04 15:41:00,
2013-10-04 11:47:00,74.4,67.1,30.06,SSE,157,0.0,2.0,78,0.00,,CLR,0.00,515.00,VWS V14.01,2013-10-04 15:47:00,
2013-10-04 11:52:00,75.1,67.0,30.05,NW,306,0.0,2.0,76,0.00,,CLR,0.00,482.00,VWS V14.01,2013-10-04 15:52:00,
2013-10-04 11:57:00,75.4,67.7,30.05,South,186,0.0,3.0,77,0.00,,CLR,0.00,469.00,VWS V14.01,2013-10-04 15:57:00,
2013-10-04 12:02:00,75.4,67.7,30.05,SSW,201,1.0,3.0,77,0.00,,CLR,0.00,471.00,VWS V14.01,2013-10-04 16:02:00,
2013-10-04 12:07:00,75.7,67.6,30.05,South,181,0.0,1.0,76,0.00,,CLR,0.00,527.00,VWS V14.01,2013-10-04 16:07:00,
2013-10-04 12:12:00,76.7,67.8,30.04,SSE,163,0.0,1.0,74,0.00,,CLR,0.00,619.00,VWS V14.01,2013-10-04 16:12:00,
2013-10-04 12:17:00,77.5,68.2,30.04,South,190,0.0,3.0,73,0.00,,CLR,0.00,668.00,VWS V14.01,2013-10-04 16:17:00,
2013-10-04 12:22:00,77.9,68.6,30.04,SE,138,0.0,2.0,73,0.00,,CLR,0.00,448.00,VWS V14.01,2013-10-04 16:22:00,
2013-10-04 12:27:00,78.3,68.9,30.04,SSE,150,1.0,1.0,73,0.00,,CLR,0.00,308.00,VWS V14.01,2013-10-04 16:27:00,
2013-10-04 12:32:00,78.7,68.9,30.04,North,360,1.0,3.0,72,0.00,,CLR,0.00,605.00,VWS V14.01,2013-10-04 16:32:00,
2013-10-04 12:37:00,79.3,69.5,30.03,NE,34,0.0,1.0,72,0.00,,CLR,0.00,587.00,VWS V14.01,2013-10-04 16:37:00,
2013-10-04 12:42:00,80.1,69.0,30.03,West,261,0.0,2.0,69,0.00,,CLR,0.00,468.00,VWS V14.01,2013-10-04 16:42:00,
2013-10-04 12:47:00,80.2,69.1,30.03,NW,315,0.0,6.0,69,0.00,,CLR,0.00,476.00,VWS V14.01,2013-10-04 16:47:00,
2013-10-04 12:53:00,80.3,68.8,30.02,NNE,13,0.0,6.0,68,0.00,,CLR,0.00,510.00,VWS V14.01,2013-10-04 16:53:00,
2013-10-04 12:58:00,81.0,69.0,30.02,NNE,12,3.0,4.0,67,0.00,,CLR,0.00,555.00,VWS V14.01,2013-10-04 16:58:00,
2013-10-04 13:03:00,81.1,69.1,30.02,NW,323,2.0,9.0,67,0.00,,CLR,0.00,612.00,VWS V14.01,2013-10-04 17:03:00,
2013-10-04 13:08:00,81.1,69.6,30.02,NW,323,5.0,6.0,68,0.00,,CLR,0.00,657.00,VWS V14.01,2013-10-04 17:08:00,
2013-10-04 13:13:00,81.5,68.6,30.02,North,350,4.0,8.0,65,0.00,,CLR,0.00,654.00,VWS V14.01,2013-10-04 17:13:00,
2013-10-04 13:18:00,81.6,68.7,30.01,NNE,26,0.0,6.0,65,0.00,,CLR,0.00,657.00,VWS V14.01,2013-10-04 17:18:00,
2013-10-04 13:23:00,81.8,68.4,30.01,NW,307,4.0,7.0,64,0.00,,CLR,0.00,661.00,VWS V14.01,2013-10-04 17:23:00,
2013-10-04 13:28:00,81.9,69.0,30.01,NW,322,3.0,7.0,65,0.00,,CLR,0.00,666.00,VWS V14.01,2013-10-04 17:28:00,
2013-10-04 13:33:00,82.1,68.3,30.01,North,355,6.0,6.0,63,0.00,,CLR,0.00,675.00,VWS V14.01,2013-10-04 17:33:00,
2013-10-04 13:59:00,83.2,68.4,30.00,NW,321,1.0,10.0,61,0.00,,CLR,0.00,635.00,VWS V14.01,2013-10-04 17:59:00,
2013-10-04 14:04:00,82.8,68.0,30.00,NW,304,0.0,3.0,61,0.00,,CLR,0.00,631.00,VWS V14.01,2013-10-04 18:04:00,
2013-10-04 14:09:00,82.9,67.6,30.00,NNW,331,1.0,9.0,60,0.00,,CLR,0.00,635.00,VWS V14.01,2013-10-04 18:09:00,
2013-10-04 14:14:00,83.3,68.0,30.00,North,355,6.0,7.0,60,0.00,,CLR,0.00,635.00,VWS V14.01,2013-10-04 18:14:00,
2013-10-04 14:19:00,83.4,67.6,30.00,North,9,0.0,6.0,59,0.00,,CLR,0.00,668.00,VWS V14.01,2013-10-04 18:19:00,
2013-10-04 14:24:00,83.9,68.1,30.00,North,350,0.0,8.0,59,0.00,,CLR,0.00,710.00,VWS V14.01,2013-10-04 18:24:00,
2013-10-04 14:29:00,84.2,68.8,29.99,NNW,328,5.0,5.0,60,0.00,,CLR,0.00,675.00,VWS V14.01,2013-10-04 18:29:00,
2013-10-04 14:34:00,84.7,67.8,29.99,NNW,348,2.0,3.0,57,0.00,,CLR,0.00,666.00,VWS V14.01,2013-10-04 18:34:00,
2013-10-04 14:39:00,84.5,67.6,29.99,NW,323,1.0,1.0,57,0.00,,CLR,0.00,380.00,VWS V14.01,2013-10-04 18:39:00,
2013-10-04 14:44:00,84.5,67.1,29.99,West,275,0.0,0.0,56,0.00,,CLR,0.00,605.00,VWS V14.01,2013-10-04 18:44:00,
2013-10-04 14:49:00,84.6,67.2,29.99,NW,310,5.0,5.0,56,0.00,,CLR,0.00,585.00,VWS V14.01,2013-10-04 18:49:00,
2013-10-04 14:54:00,84.6,67.2,29.99,NNW,336,0.0,4.0,56,0.00,,CLR,0.00,568.00,VWS V14.01,2013-10-04 18:54:00,
2013-10-04 14:59:00,84.6,67.2,29.99,North,355,0.0,0.0,56,0.00,,CLR,0.00,580.00,VWS V14.01,2013-10-04 18:59:00,
2013-10-04 15:04:00,84.4,67.0,29.99,North,349,0.0,1.0,56,0.00,,CLR,0.00,557.00,VWS V14.01,2013-10-04 19:04:00,
2013-10-04 15:09:00,84.3,67.9,29.99,NNW,337,0.0,1.0,58,0.00,,CLR,0.00,543.00,VWS V14.01,2013-10-04 19:09:00,
2013-10-04 15:14:00,84.4,67.5,29.99,NNW,344,0.0,0.0,57,0.00,,CLR,0.00,527.00,VWS V14.01,2013-10-04 19:14:00,
2013-10-04 15:20:00,84.6,67.2,29.99,SSW,213,0.0,0.0,56,0.00,,CLR,0.00,520.00,VWS V14.01,2013-10-04 19:20:00,
2013-10-04 15:25:00,84.8,67.4,29.99,ENE,68,0.0,0.0,56,0.00,,CLR,0.00,513.00,VWS V14.01,2013-10-04 19:25:00,
2013-10-04 15:30:00,85.1,67.7,29.99,NE,42,0.0,1.0,56,0.00,,CLR,0.00,503.00,VWS V14.01,2013-10-04 19:30:00,
2013-10-04 15:35:00,85.4,69.0,29.98,NNW,330,0.0,1.0,58,0.00,,CLR,0.00,482.00,VWS V14.01,2013-10-04 19:35:00,
2013-10-04 15:40:00,85.4,67.4,29.98,WSW,238,0.0,2.0,55,0.00,,CLR,0.00,476.00,VWS V14.01,2013-10-04 19:40:00,
2013-10-04 15:45:00,85.3,67.3,29.98,WSW,253,0.0,1.0,55,0.00,,CLR,0.00,466.00,VWS V14.01,2013-10-04 19:45:00,
2013-10-04 15:50:00,85.5,68.0,29.98,West,260,0.0,2.0,56,0.00,,CLR,0.00,452.00,VWS V14.01,2013-10-04 19:50:00,
2013-10-04 15:55:00,85.5,67.5,29.98,SSW,196,0.0,3.0,55,0.00,,CLR,0.00,438.00,VWS V14.01,2013-10-04 19:55:00,
2013-10-04 16:00:00,85.4,68.4,29.98,NW,326,3.0,4.0,57,0.00,,CLR,0.00,422.00,VWS V14.01,2013-10-04 20:00:00,
2013-10-04 16:05:00,85.5,67.5,29.97,WNW,284,0.0,2.0,55,0.00,,CLR,0.00,408.00,VWS V14.01,2013-10-04 20:05:00,
2013-10-04 16:10:00,85.6,68.1,29.98,SSW,211,0.0,4.0,56,0.00,,CLR,0.00,404.00,VWS V14.01,2013-10-04 20:10:00,
2013-10-04 16:15:00,85.5,67.5,29.97,WSW,245,1.0,3.0,55,0.00,,CLR,0.00,394.00,VWS V14.01,2013-10-04 20:15:00,
2013-10-04 16:20:00,85.3,67.8,29.97,West,271,0.0,1.0,56,0.00,,CLR,0.00,373.00,VWS V14.01,2013-10-04 20:20:00,
2013-10-04 16:26:00,85.3,68.3,29.97,SW,225,0.0,1.0,57,0.00,,CLR,0.00,357.00,VWS V14.01,2013-10-04 20:26:00,
2013-10-04 16:31:00,85.5,67.5,29.98,NNW,345,2.0,2.0,55,0.00,,CLR,0.00,350.00,VWS V14.01,2013-10-04 20:31:00,
2013-10-04 16:36:00,85.6,67.6,29.98,NW,317,2.0,2.0,55,0.00,,CLR,0.00,334.00,VWS V14.01,2013-10-04 20:36:00,
2013-10-04 16:41:00,85.6,67.6,29.97,South,180,2.0,7.0,55,0.00,,CLR,0.00,316.00,VWS V14.01,2013-10-04 20:41:00,
2013-10-04 16:46:00,85.6,67.6,29.98,WSW,257,1.0,4.0,55,0.00,,CLR,0.00,308.00,VWS V14.01,2013-10-04 20:46:00,
2013-10-04 16:51:00,85.6,68.1,29.98,West,263,0.0,2.0,56,0.00,,CLR,0.00,287.00,VWS V14.01,2013-10-04 20:51:00,
2013-10-04 16:56:00,85.5,67.5,29.98,WNW,288,0.0,1.0,55,0.00,,CLR,0.00,271.00,VWS V14.01,2013-10-04 20:56:00,
2013-10-04 17:01:00,85.3,67.3,29.97,West,267,0.0,3.0,55,0.00,,CLR,0.00,258.00,VWS V14.01,2013-10-04 21:01:00,
2013-10-04 17:06:00,85.2,67.2,29.97,WNW,283,0.0,3.0,55,0.00,,CLR,0.00,244.00,VWS V14.01,2013-10-04 21:06:00,
2013-10-04 17:11:00,85.0,67.6,29.97,West,267,0.0,3.0,56,0.00,,CLR,0.00,227.00,VWS V14.01,2013-10-04 21:11:00,
2013-10-04 17:16:00,84.8,67.4,29.97,WSW,244,0.0,1.0,56,0.00,,CLR,0.00,211.00,VWS V14.01,2013-10-04 21:16:00,
2013-10-04 17:21:00,84.6,67.2,29.98,WSW,245,0.0,1.0,56,0.00,,CLR,0.00,176.00,VWS V14.01,2013-10-04 21:21:00,
2013-10-04 17:26:00,84.5,67.1,29.97,WNW,291,0.0,1.0,56,0.00,,CLR,0.00,54.00,VWS V14.01,2013-10-04 21:26:00,
2013-10-04 17:32:00,84.4,67.5,29.97,WSW,245,0.0,1.0,57,0.00,,CLR,0.00,54.00,VWS V14.01,2013-10-04 21:32:00,
2013-10-04 17:37:00,84.4,67.0,29.97,WSW,255,0.0,1.0,56,0.00,,CLR,0.00,47.00,VWS V14.01,2013-10-04 21:37:00,
2013-10-04 17:42:00,84.3,66.9,29.97,WNW,299,0.0,2.0,56,0.00,,CLR,0.00,46.00,VWS V14.01,2013-10-04 21:42:00,
2013-10-04 17:47:00,84.2,66.8,29.97,WNW,299,0.0,1.0,56,0.00,,CLR,0.00,44.00,VWS V14.01,2013-10-04 21:47:00,
2013-10-04 17:52:00,84.0,67.1,29.97,WNW,290,0.0,1.0,57,0.00,,CLR,0.00,42.00,VWS V14.01,2013-10-04 21:52:00,
2013-10-04 17:57:00,83.8,67.0,29.97,WNW,290,0.0,1.0,57,0.00,,CLR,0.00,33.00,VWS V14.01,2013-10-04 21:57:00,
2013-10-04 18:02:00,83.6,66.8,29.97,WNW,290,0.0,0.0,57,0.00,,CLR,0.00,33.00,VWS V14.01,2013-10-04 22:02:00,
2013-10-04 18:07:00,83.5,67.2,29.97,WNW,290,0.0,0.0,58,0.00,,CLR,0.00,33.00,VWS V14.01,2013-10-04 22:07:00,
2013-10-04 18:12:00,83.3,67.0,29.98,WNW,290,0.0,0.0,58,0.00,,CLR,0.00,30.00,VWS V14.01,2013-10-04 22:12:00,
2013-10-04 18:17:00,83.0,66.7,29.97,WNW,290,0.0,0.0,58,0.00,,CLR,0.00,25.00,VWS V14.01,2013-10-04 22:17:00,
2013-10-04 18:22:00,82.8,67.0,29.97,WNW,290,0.0,0.0,59,0.00,,CLR,0.00,21.00,VWS V14.01,2013-10-04 22:22:00,
2013-10-04 18:28:00,82.4,67.1,29.97,WNW,290,0.0,0.0,60,0.00,,CLR,0.00,19.00,VWS V14.01,2013-10-04 22:28:00,
2013-10-04 18:33:00,82.2,67.4,29.97,WNW,290,0.0,0.0,61,0.00,,CLR,0.00,14.00,VWS V14.01,2013-10-04 22:33:00,
2013-10-04 18:38:00,81.9,67.1,29.97,WNW,290,0.0,0.0,61,0.00,,CLR,0.00,11.00,VWS V14.01,2013-10-04 22:38:00,
2013-10-04 18:43:00,81.6,66.9,29.97,WNW,290,0.0,0.0,61,0.00,,CLR,0.00,7.00,VWS V14.01,2013-10-04 22:43:00,
2013-10-04 18:48:00,81.2,66.5,29.97,WNW,290,0.0,0.0,61,0.00,,CLR,0.00,0.00,VWS V14.01,2013-10-04 22:48:00,
2013-10-04 18:53:00,80.8,66.6,29.97,WNW,290,0.0,0.0,62,0.00,,CLR,0.00,0.00,VWS V14.01,2013-10-04 22:53:00,
2013-10-04 18:58:00,80.3,66.6,29.97,WNW,290,0.0,0.0,63,0.00,,CLR,0.00,0.00,VWS V14.01,2013-10-04 22:58:00,
2013-10-04 19:03:00,79.8,66.6,29.98,WNW,290,0.0,0.0,64,0.00,,CLR,0.00,0.00,VWS V14.01,2013-10-04 23:03:00,
2013-10-04 19:08:00,79.3,66.1,29.98,WNW,290,0.0,0.0,64,0.00,,CLR,0.00,0.00,VWS V14.01,2013-10-04 23:08:00,
2013-10-04 19:14:00,78.9,66.2,29.98,WNW,290,0.0,0.0,65,0.00,,CLR,0.00,0.00,VWS V14.01,2013-10-04 23:14:00,
2013-10-04 19:19:00,78.3,66.0,29.98,WNW,290,0.0,0.0,66,0.00,,CLR,0.00,0.00,VWS V14.01,2013-10-04 23:19:00,
2013-10-04 19:24:00,77.9,66.5,29.98,WNW,290,0.0,0.0,68,0.00,,CLR,0.00,0.00,VWS V14.01,2013-10-04 23:24:00,
2013-10-04 19:29:00,77.4,66.0,29.98,WNW,290,0.0,0.0,68,0.00,,CLR,0.00,0.00,VWS V14.01,2013-10-04 23:29:00,
2013-10-04 19:34:00,77.0,65.6,29.98,WNW,290,0.0,0.0,68,0.00,,CLR,0.00,0.00,VWS V14.01,2013-10-04 23:34:00,
2013-10-04 19:39:00,76.5,65.2,29.99,WNW,290,0.0,0.0,68,0.00,,CLR,0.00,0.00,VWS V14.01,2013-10-04 23:39:00,
2013-10-04 19:44:00,76.1,65.2,29.99,WNW,290,0.0,0.0,69,0.00,,CLR,0.00,0.00,VWS V14.01,2013-10-04 23:44:00,
2013-10-04 19:49:00,75.7,64.8,29.99,WNW,290,0.0,0.0,69,0.00,,CLR,0.00,0.00,VWS V14.01,2013-10-04 23:49:00,
2013-10-04 19:54:00,75.3,64.8,29.99,WNW,290,0.0,0.0,70,0.00,,CLR,0.00,0.00,VWS V14.01,2013-10-04 23:54:00,
2013-10-04 19:59:00,74.8,64.8,29.99,WNW,290,0.0,0.0,71,0.00,,CLR,0.00,0.00,VWS V14.01,2013-10-04 23:59:00,
2013-10-04 20:04:00,74.5,64.5,29.99,WNW,290,0.0,0.0,71,0.00,,CLR,0.00,0.00,VWS V14.01,2013-10-05 00:04:00,
2013-10-04 20:09:00,74.2,64.6,30.00,WNW,290,0.0,0.0,72,0.00,,CLR,0.00,0.00,VWS V14.01,2013-10-05 00:09:00,
2013-10-04 20:14:00,73.9,65.1,30.00,WNW,290,0.0,0.0,74,0.00,,CLR,0.00,0.00,VWS V14.01,2013-10-05 00:14:00,
2013-10-04 20:19:00,73.7,65.7,29.99,WNW,290,0.0,0.0,76,0.00,,CLR,0.00,0.00,VWS V14.01,2013-10-05 00:19:00,
2013-10-04 20:25:00,73.5,65.5,30.00,WNW,290,0.0,0.0,76,0.00,,CLR,0.00,0.00,VWS V14.01,2013-10-05 00:25:00,
2013-10-04 20:30:00,73.4,65.4,30.00,WNW,290,0.0,0.0,76,0.00,,CLR,0.00,0.00,VWS V14.01,2013-10-05 00:30:00,
2013-10-04 20:35:00,73.2,65.6,29.99,WNW,290,0.0,0.0,77,0.00,,CLR,0.00,0.00,VWS V14.01,2013-10-05 00:35:00,
2013-10-04 20:40:00,73.0,65.4,29.99,WNW,290,0.0,0.0,77,0.00,,CLR,0.00,0.00,VWS V14.01,2013-10-05 00:40:00,
2013-10-04 20:45:00,72.9,65.3,30.00,WNW,290,0.0,0.0,77,0.00,,CLR,0.00,0.00,VWS V14.01,2013-10-05 00:45:00,
2013-10-04 20:50:00,72.8,65.6,30.00,WNW,290,0.0,0.0,78,0.00,,CLR,0.00,0.00,VWS V14.01,2013-10-05 00:50:00,
2013-10-04 20:55:00,72.6,65.3,30.00,WNW,290,0.0,1.0,78,0.00,,CLR,0.00,0.00,VWS V14.01,2013-10-05 00:55:00,
2013-10-04 21:00:00,72.5,65.6,30.00,WNW,290,0.0,0.0,79,0.00,,CLR,0.00,0.00,VWS V14.01,2013-10-05 01:00:00,
2013-10-04 21:05:00,72.4,65.9,30.00,WNW,290,0.0,0.0,80,0.00,,CLR,0.00,0.00,VWS V14.01,2013-10-05 01:05:00,
2013-10-04 21:11:00,72.4,65.9,30.00,WNW,290,0.0,0.0,80,0.00,,CLR,0.00,0.00,VWS V14.01,2013-10-05 01:11:00,
2013-10-04 21:16:00,72.4,65.9,30.00,WNW,290,0.0,0.0,80,0.00,,CLR,0.00,0.00,VWS V14.01,2013-10-05 01:16:00,
2013-10-04 21:21:00,72.4,66.2,30.00,WNW,290,0.0,0.0,81,0.00,,CLR,0.00,0.00,VWS V14.01,2013-10-05 01:21:00,
2013-10-04 21:26:00,72.3,66.2,30.00,WNW,290,0.0,0.0,81,0.00,,CLR,0.00,0.00,VWS V14.01,2013-10-05 01:26:00,
2013-10-04 21:31:00,72.3,66.2,30.00,WSW,257,0.0,0.0,81,0.00,,CLR,0.00,0.00,VWS V14.01,2013-10-05 01:31:00,
2013-10-04 21:36:00,72.2,66.1,30.00,WSW,257,0.0,0.0,81,0.00,,CLR,0.00,0.00,VWS V14.01,2013-10-05 01:36:00,
2013-10-04 21:41:00,72.2,66.1,30.00,WSW,258,0.0,0.0,81,0.00,,CLR,0.00,0.00,VWS V14.01,2013-10-05 01:41:00,
2013-10-04 21:46:00,72.1,66.3,30.00,WSW,258,0.0,0.0,82,0.00,,CLR,0.00,0.00,VWS V14.01,2013-10-05 01:46:00,
2013-10-04 21:51:00,72.1,66.3,30.00,WSW,258,0.0,0.0,82,0.00,,CLR,0.00,0.00,VWS V14.01,2013-10-05 01:51:00,
2013-10-04 21:57:00,72.0,66.2,30.00,WSW,258,0.0,0.0,82,0.00,,CLR,0.00,0.00,VWS V14.01,2013-10-05 01:57:00,
2013-10-04 22:02:00,71.8,66.0,30.00,WSW,258,0.0,0.0,82,0.00,,CLR,0.00,0.00,VWS V14.01,2013-10-05 02:02:00,
2013-10-04 22:07:00,71.7,65.6,30.00,WSW,258,0.0,0.0,81,0.00,,CLR,0.00,0.00,VWS V14.01,2013-10-05 02:07:00,
2013-10-04 22:12:00,71.5,65.4,30.01,WSW,258,0.0,0.0,81,0.00,,CLR,0.00,0.00,VWS V14.01,2013-10-05 02:12:00,
2013-10-04 22:17:00,71.3,65.2,30.01,WSW,257,0.0,0.0,81,0.00,,CLR,0.00,0.00,VWS V14.01,2013-10-05 02:17:00,
2013-10-04 22:22:00,71.2,65.8,30.01,WSW,258,0.0,0.0,83,0.00,,CLR,0.00,0.00,VWS V14.01,2013-10-05 02:22:00,
2013-10-04 22:27:00,71.0,65.2,30.01,WSW,258,0.0,0.0,82,0.00,,CLR,0.00,0.00,VWS V14.01,2013-10-05 02:27:00,
2013-10-04 22:32:00,70.8,65.4,30.01,WSW,258,0.0,0.0,83,0.00,,CLR,0.00,0.00,VWS V14.01,2013-10-05 02:32:00,
2013-10-04 22:38:00,70.6,65.2,30.01,WSW,257,0.0,0.0,83,0.00,,CLR,0.00,0.00,VWS V14.01,2013-10-05 02:38:00,
2013-10-04 22:43:00,70.4,65.0,30.01,WSW,258,0.0,0.0,83,0.00,,CLR,0.00,0.00,VWS V14.01,2013-10-05 02:43:00,
2013-10-04 22:48:00,70.2,64.8,30.01,WSW,258,0.0,0.0,83,0.00,,CLR,0.00,0.00,VWS V14.01,2013-10-05 02:48:00,
2013-10-04 22:53:00,70.0,64.6,30.01,WSW,258,0.0,0.0,83,0.00,,CLR,0.00,0.00,VWS V14.01,2013-10-05 02:53:00,
2013-10-04 22:58:00,69.7,64.3,30.01,WSW,257,0.0,0.0,83,0.00,,CLR,0.00,0.00,VWS V14.01,2013-10-05 02:58:00,
2013-10-04 23:03:00,69.5,64.5,30.01,WSW,258,0.0,0.0,84,0.00,,CLR,0.00,0.00,VWS V14.01,2013-10-05 03:03:00,
2013-10-04 23:08:00,69.3,64.3,30.01,WSW,258,0.0,0.0,84,0.00,,CLR,0.00,0.00,VWS V14.01,2013-10-05 03:08:00,
2013-10-04 23:13:00,69.1,64.4,30.02,WSW,258,0.0,0.0,85,0.00,,CLR,0.00,0.00,VWS V14.01,2013-10-05 03:13:00,
2013-10-04 23:18:00,69.0,64.6,30.02,WSW,258,0.0,0.0,86,0.00,,CLR,0.00,0.00,VWS V14.01,2013-10-05 03:18:00,
2013-10-04 23:24:00,68.8,64.8,30.02,WSW,258,0.0,0.0,87,0.00,,CLR,0.00,0.00,VWS V14.01,2013-10-05 03:24:00,
2013-10-04 23:29:00,68.6,64.6,30.02,WSW,258,0.0,0.0,87,0.00,,CLR,0.00,0.00,VWS V14.01,2013-10-05 03:29:00,
2013-10-04 23:34:00,68.4,64.4,30.02,WSW,258,0.0,0.0,87,0.00,,CLR,0.00,0.00,VWS V14.01,2013-10-05 03:34:00,
2013-10-04 23:39:00,68.3,64.6,30.02,WSW,257,0.0,0.0,88,0.00,,CLR,0.00,0.00,VWS V14.01,2013-10-05 03:39:00,
2013-10-04 23:44:00,68.2,64.8,30.01,WSW,258,0.0,1.0,89,0.00,,CLR,0.00,0.00,VWS V14.01,2013-10-05 03:44:00,
2013-10-04 23:49:00,68.1,64.7,30.01,WSW,258,0.0,1.0,89,0.00,,CLR,0.00,0.00,VWS V14.01,2013-10-05 03:49:00,
2013-10-04 23:54:00,68.1,64.7,30.01,WSW,256,0.0,1.0,89,0.00,,CLR,0.00,0.00,VWS V14.01,2013-10-05 03:54:00,
2013-10-04 23:59:00,68.1,64.7,30.01,WSW,256,0.0,1.0,89,0.00,,CLR,0.00,0.00,VWS V14.01,2013-10-05 03:59:00,